sensor_id;sensor_type;location;lat;lon;timestamp;temperature;humidity
31661;DHT22;18267;52.234;7.444;2023-05-07T00:01:06;15.80;99.90
31661;DHT22;18267;52.234;7.444;2023-05-07T00:03:32;15.80;99.90
31661;DHT22;18267;52.234;7.444;2023-05-07T00:05:58;15.70;99.90
31661;DHT22;18267;52.234;7.444;2023-05-07T00:08:23;15.70;99.90
31661;DHT22;18267;52.234;7.444;2023-05-07T00:10:49;15.60;99.90
31661;DHT22;18267;52.234;7.444;2023-05-07T00:13:15;15.60;99.90
31661;DHT22;18267;52.234;7.444;2023-05-07T00:15:40;15.60;99.90
31661;DHT22;18267;52.234;7.444;2023-05-07T00:18:06;15.60;99.90
31661;DHT22;18267;52.234;7.444;2023-05-07T00:20:32;15.50;99.90
31661;DHT22;18267;52.234;7.444;2023-05-07T00:22:57;15.50;99.90
31661;DHT22;18267;52.234;7.444;2023-05-07T00:25:23;15.60;99.90
31661;DHT22;18267;52.234;7.444;2023-05-07T00:27:49;15.60;99.90
31661;DHT22;18267;52.234;7.444;2023-05-07T00:30:14;15.50;99.90
31661;DHT22;18267;52.234;7.444;2023-05-07T00:32:40;15.50;99.90
31661;DHT22;18267;52.234;7.444;2023-05-07T00:35:06;15.50;99.90
31661;DHT22;18267;52.234;7.444;2023-05-07T00:37:32;15.50;99.90
31661;DHT22;18267;52.234;7.444;2023-05-07T00:39:58;15.50;99.90
31661;DHT22;18267;52.234;7.444;2023-05-07T00:42:24;15.50;99.90
31661;DHT22;18267;52.234;7.444;2023-05-07T00:44:49;15.50;99.90
31661;DHT22;18267;52.234;7.444;2023-05-07T00:47:15;15.50;99.90
31661;DHT22;18267;52.234;7.444;2023-05-07T00:49:42;15.50;99.90
31661;DHT22;18267;52.234;7.444;2023-05-07T00:52:11;15.60;99.90
31661;DHT22;18267;52.234;7.444;2023-05-07T00:54:38;15.50;99.90
31661;DHT22;18267;52.234;7.444;2023-05-07T00:57:05;15.50;99.90
31661;DHT22;18267;52.234;7.444;2023-05-07T00:59:32;15.60;99.90
31661;DHT22;18267;52.234;7.444;2023-05-07T01:01:58;15.50;99.90
31661;DHT22;18267;52.234;7.444;2023-05-07T01:04:24;15.50;99.90
31661;DHT22;18267;52.234;7.444;2023-05-07T01:06:50;15.50;99.90
31661;DHT22;18267;52.234;7.444;2023-05-07T01:09:17;15.40;99.90
31661;DHT22;18267;52.234;7.444;2023-05-07T01:11:45;15.40;99.90
31661;DHT22;18267;52.234;7.444;2023-05-07T01:14:12;15.40;99.90
31661;DHT22;18267;52.234;7.444;2023-05-07T01:16:37;15.40;99.90
31661;DHT22;18267;52.234;7.444;2023-05-07T01:19:03;15.40;99.90
31661;DHT22;18267;52.234;7.444;2023-05-07T01:21:32;15.20;99.90
31661;DHT22;18267;52.234;7.444;2023-05-07T01:23:58;15.20;99.90
31661;DHT22;18267;52.234;7.444;2023-05-07T01:26:24;15.10;99.90
31661;DHT22;18267;52.234;7.444;2023-05-07T01:28:49;15.10;99.90
31661;DHT22;18267;52.234;7.444;2023-05-07T01:31:17;15.10;99.90
31661;DHT22;18267;52.234;7.444;2023-05-07T01:33:44;15.10;99.90
31661;DHT22;18267;52.234;7.444;2023-05-07T01:36:11;15.10;99.90
31661;DHT22;18267;52.234;7.444;2023-05-07T01:38:38;15.00;99.90
31661;DHT22;18267;52.234;7.444;2023-05-07T01:41:04;15.00;99.90
31661;DHT22;18267;52.234;7.444;2023-05-07T01:43:30;15.00;99.90
31661;DHT22;18267;52.234;7.444;2023-05-07T01:45:57;14.90;99.90
31661;DHT22;18267;52.234;7.444;2023-05-07T01:48:24;14.90;99.90
31661;DHT22;18267;52.234;7.444;2023-05-07T01:50:50;14.90;99.90
31661;DHT22;18267;52.234;7.444;2023-05-07T01:53:16;14.80;99.90
31661;DHT22;18267;52.234;7.444;2023-05-07T01:55:42;14.80;99.90
31661;DHT22;18267;52.234;7.444;2023-05-07T01:58:07;14.80;99.90
31661;DHT22;18267;52.234;7.444;2023-05-07T02:00:33;14.70;99.90
31661;DHT22;18267;52.234;7.444;2023-05-07T02:02:58;14.80;99.90
31661;DHT22;18267;52.234;7.444;2023-05-07T02:05:24;14.70;99.90
31661;DHT22;18267;52.234;7.444;2023-05-07T02:07:50;14.70;99.90
31661;DHT22;18267;52.234;7.444;2023-05-07T02:10:15;14.70;99.90
31661;DHT22;18267;52.234;7.444;2023-05-07T02:12:41;14.70;99.90
31661;DHT22;18267;52.234;7.444;2023-05-07T02:15:08;14.70;99.90
31661;DHT22;18267;52.234;7.444;2023-05-07T02:17:34;14.60;99.90
31661;DHT22;18267;52.234;7.444;2023-05-07T02:19:59;14.70;99.90
31661;DHT22;18267;52.234;7.444;2023-05-07T02:22:25;14.60;99.90
31661;DHT22;18267;52.234;7.444;2023-05-07T02:24:51;14.70;99.90
31661;DHT22;18267;52.234;7.444;2023-05-07T02:27:16;14.70;99.90
31661;DHT22;18267;52.234;7.444;2023-05-07T02:29:42;14.70;99.90
31661;DHT22;18267;52.234;7.444;2023-05-07T02:32:07;14.60;99.90
31661;DHT22;18267;52.234;7.444;2023-05-07T02:34:33;14.70;99.90
31661;DHT22;18267;52.234;7.444;2023-05-07T02:36:58;14.70;99.90
31661;DHT22;18267;52.234;7.444;2023-05-07T02:39:24;14.70;99.90
31661;DHT22;18267;52.234;7.444;2023-05-07T02:41:50;14.60;99.90
31661;DHT22;18267;52.234;7.444;2023-05-07T02:44:15;14.50;99.90
31661;DHT22;18267;52.234;7.444;2023-05-07T02:46:41;14.40;99.90
31661;DHT22;18267;52.234;7.444;2023-05-07T02:49:06;14.40;99.90
31661;DHT22;18267;52.234;7.444;2023-05-07T02:51:32;14.40;99.90
31661;DHT22;18267;52.234;7.444;2023-05-07T02:53:57;14.40;99.90
31661;DHT22;18267;52.234;7.444;2023-05-07T02:56:26;14.30;99.90
31661;DHT22;18267;52.234;7.444;2023-05-07T02:58:52;14.30;99.90
31661;DHT22;18267;52.234;7.444;2023-05-07T03:01:17;14.40;99.90
31661;DHT22;18267;52.234;7.444;2023-05-07T03:03:44;14.40;99.90
31661;DHT22;18267;52.234;7.444;2023-05-07T03:06:09;14.40;99.90
31661;DHT22;18267;52.234;7.444;2023-05-07T03:08:35;14.30;99.90
31661;DHT22;18267;52.234;7.444;2023-05-07T03:11:02;14.20;99.90
31661;DHT22;18267;52.234;7.444;2023-05-07T03:13:27;14.20;99.90
31661;DHT22;18267;52.234;7.444;2023-05-07T03:15:53;14.20;99.90
31661;DHT22;18267;52.234;7.444;2023-05-07T03:18:18;14.20;99.90
31661;DHT22;18267;52.234;7.444;2023-05-07T03:20:44;14.20;99.90
31661;DHT22;18267;52.234;7.444;2023-05-07T03:23:10;14.20;99.90
31661;DHT22;18267;52.234;7.444;2023-05-07T03:25:35;14.10;99.90
31661;DHT22;18267;52.234;7.444;2023-05-07T03:28:01;14.00;99.90
31661;DHT22;18267;52.234;7.444;2023-05-07T03:30:26;14.00;99.90
31661;DHT22;18267;52.234;7.444;2023-05-07T03:32:52;14.00;99.90
31661;DHT22;18267;52.234;7.444;2023-05-07T03:35:18;13.80;99.90
31661;DHT22;18267;52.234;7.444;2023-05-07T03:37:43;13.80;99.90
31661;DHT22;18267;52.234;7.444;2023-05-07T03:40:09;13.80;99.90
31661;DHT22;18267;52.234;7.444;2023-05-07T03:42:35;13.80;99.90
31661;DHT22;18267;52.234;7.444;2023-05-07T03:45:01;13.80;99.90
31661;DHT22;18267;52.234;7.444;2023-05-07T03:47:27;13.90;99.90
31661;DHT22;18267;52.234;7.444;2023-05-07T03:49:52;13.80;99.90
31661;DHT22;18267;52.234;7.444;2023-05-07T03:52:19;13.90;99.90
31661;DHT22;18267;52.234;7.444;2023-05-07T03:54:49;13.90;99.90
31661;DHT22;18267;52.234;7.444;2023-05-07T03:57:14;13.90;99.90
31661;DHT22;18267;52.234;7.444;2023-05-07T03:59:40;14.00;99.90
31661;DHT22;18267;52.234;7.444;2023-05-07T04:02:06;14.10;99.90
31661;DHT22;18267;52.234;7.444;2023-05-07T04:04:31;14.10;99.90
31661;DHT22;18267;52.234;7.444;2023-05-07T04:06:58;14.10;99.90
31661;DHT22;18267;52.234;7.444;2023-05-07T04:09:24;14.10;99.90
31661;DHT22;18267;52.234;7.444;2023-05-07T04:11:50;14.10;99.90
31661;DHT22;18267;52.234;7.444;2023-05-07T04:14:16;14.10;99.90
31661;DHT22;18267;52.234;7.444;2023-05-07T04:16:41;14.10;99.90
31661;DHT22;18267;52.234;7.444;2023-05-07T04:19:07;14.00;99.90
31661;DHT22;18267;52.234;7.444;2023-05-07T04:21:32;13.90;99.90
31661;DHT22;18267;52.234;7.444;2023-05-07T04:23:58;14.00;99.90
31661;DHT22;18267;52.234;7.444;2023-05-07T04:26:24;14.00;99.90
31661;DHT22;18267;52.234;7.444;2023-05-07T04:28:49;14.10;99.90
31661;DHT22;18267;52.234;7.444;2023-05-07T04:31:15;14.10;99.90
31661;DHT22;18267;52.234;7.444;2023-05-07T04:33:41;14.10;99.90
31661;DHT22;18267;52.234;7.444;2023-05-07T04:36:06;14.10;99.90
31661;DHT22;18267;52.234;7.444;2023-05-07T04:38:32;14.10;99.90
31661;DHT22;18267;52.234;7.444;2023-05-07T04:41:02;14.00;99.90
31661;DHT22;18267;52.234;7.444;2023-05-07T04:43:28;14.10;99.90
31661;DHT22;18267;52.234;7.444;2023-05-07T04:45:54;14.10;99.90
31661;DHT22;18267;52.234;7.444;2023-05-07T04:48:19;14.10;99.90
31661;DHT22;18267;52.234;7.444;2023-05-07T04:50:49;14.20;99.90
31661;DHT22;18267;52.234;7.444;2023-05-07T04:53:15;14.20;99.90
31661;DHT22;18267;52.234;7.444;2023-05-07T04:55:41;14.20;99.90
31661;DHT22;18267;52.234;7.444;2023-05-07T04:58:07;14.20;99.90
31661;DHT22;18267;52.234;7.444;2023-05-07T05:00:33;14.20;99.90
31661;DHT22;18267;52.234;7.444;2023-05-07T05:02:59;14.20;99.90
31661;DHT22;18267;52.234;7.444;2023-05-07T05:05:24;14.20;99.90
31661;DHT22;18267;52.234;7.444;2023-05-07T05:07:50;14.30;99.90
31661;DHT22;18267;52.234;7.444;2023-05-07T05:10:17;14.40;99.90
31661;DHT22;18267;52.234;7.444;2023-05-07T05:12:43;14.40;99.90
31661;DHT22;18267;52.234;7.444;2023-05-07T05:15:09;14.50;99.90
31661;DHT22;18267;52.234;7.444;2023-05-07T05:17:35;14.40;99.90
31661;DHT22;18267;52.234;7.444;2023-05-07T05:20:02;14.50;99.90
31661;DHT22;18267;52.234;7.444;2023-05-07T05:22:27;14.50;99.90
31661;DHT22;18267;52.234;7.444;2023-05-07T05:24:56;14.60;99.90
31661;DHT22;18267;52.234;7.444;2023-05-07T05:27:21;14.60;99.90
31661;DHT22;18267;52.234;7.444;2023-05-07T05:29:47;14.70;99.90
31661;DHT22;18267;52.234;7.444;2023-05-07T05:32:12;14.70;99.90
31661;DHT22;18267;52.234;7.444;2023-05-07T05:34:38;14.70;99.90
31661;DHT22;18267;52.234;7.444;2023-05-07T05:37:03;14.70;99.90
31661;DHT22;18267;52.234;7.444;2023-05-07T05:39:29;14.70;99.90
31661;DHT22;18267;52.234;7.444;2023-05-07T05:41:55;14.70;99.90
31661;DHT22;18267;52.234;7.444;2023-05-07T05:44:20;14.60;99.90
31661;DHT22;18267;52.234;7.444;2023-05-07T05:46:46;14.50;99.90
31661;DHT22;18267;52.234;7.444;2023-05-07T05:49:11;14.60;99.90
31661;DHT22;18267;52.234;7.444;2023-05-07T05:51:37;14.60;99.90
31661;DHT22;18267;52.234;7.444;2023-05-07T05:54:02;14.70;99.90
31661;DHT22;18267;52.234;7.444;2023-05-07T05:56:28;14.70;99.90
31661;DHT22;18267;52.234;7.444;2023-05-07T05:58:54;14.80;99.90
31661;DHT22;18267;52.234;7.444;2023-05-07T06:01:19;14.80;99.90
31661;DHT22;18267;52.234;7.444;2023-05-07T06:03:45;14.80;99.90
31661;DHT22;18267;52.234;7.444;2023-05-07T06:06:10;14.70;99.90
31661;DHT22;18267;52.234;7.444;2023-05-07T06:08:36;14.70;99.90
31661;DHT22;18267;52.234;7.444;2023-05-07T06:11:02;14.80;99.90
31661;DHT22;18267;52.234;7.444;2023-05-07T06:13:28;14.90;99.90
31661;DHT22;18267;52.234;7.444;2023-05-07T06:15:53;14.90;99.90
31661;DHT22;18267;52.234;7.444;2023-05-07T06:18:22;15.10;99.90
31661;DHT22;18267;52.234;7.444;2023-05-07T06:20:47;15.20;99.90
31661;DHT22;18267;52.234;7.444;2023-05-07T06:23:14;15.30;99.90
31661;DHT22;18267;52.234;7.444;2023-05-07T06:25:48;15.40;99.90
31661;DHT22;18267;52.234;7.444;2023-05-07T06:28:14;15.50;99.90
31661;DHT22;18267;52.234;7.444;2023-05-07T06:30:39;15.70;99.90
31661;DHT22;18267;52.234;7.444;2023-05-07T06:33:05;15.80;99.90
31661;DHT22;18267;52.234;7.444;2023-05-07T06:35:31;15.80;99.90
31661;DHT22;18267;52.234;7.444;2023-05-07T06:37:57;15.80;99.90
31661;DHT22;18267;52.234;7.444;2023-05-07T06:40:23;15.90;99.90
31661;DHT22;18267;52.234;7.444;2023-05-07T06:42:49;16.00;99.90
31661;DHT22;18267;52.234;7.444;2023-05-07T06:45:15;16.10;99.90
31661;DHT22;18267;52.234;7.444;2023-05-07T06:47:40;16.10;99.90
31661;DHT22;18267;52.234;7.444;2023-05-07T06:50:07;15.90;99.90
31661;DHT22;18267;52.234;7.444;2023-05-07T06:52:32;15.90;99.90
31661;DHT22;18267;52.234;7.444;2023-05-07T06:54:58;15.80;99.90
31661;DHT22;18267;52.234;7.444;2023-05-07T06:57:24;15.90;99.90
31661;DHT22;18267;52.234;7.444;2023-05-07T06:59:49;15.90;99.90
31661;DHT22;18267;52.234;7.444;2023-05-07T07:02:15;16.10;99.90
31661;DHT22;18267;52.234;7.444;2023-05-07T07:04:41;16.00;99.90
31661;DHT22;18267;52.234;7.444;2023-05-07T07:07:07;16.00;99.90
31661;DHT22;18267;52.234;7.444;2023-05-07T07:09:33;16.00;99.90
31661;DHT22;18267;52.234;7.444;2023-05-07T07:11:58;16.10;99.90
31661;DHT22;18267;52.234;7.444;2023-05-07T07:14:24;16.30;99.90
31661;DHT22;18267;52.234;7.444;2023-05-07T07:16:49;16.50;99.90
31661;DHT22;18267;52.234;7.444;2023-05-07T07:19:16;16.50;99.90
31661;DHT22;18267;52.234;7.444;2023-05-07T07:21:42;16.60;99.90
31661;DHT22;18267;52.234;7.444;2023-05-07T07:24:07;16.60;99.90
31661;DHT22;18267;52.234;7.444;2023-05-07T07:26:33;16.80;99.90
31661;DHT22;18267;52.234;7.444;2023-05-07T07:28:58;16.80;99.90
31661;DHT22;18267;52.234;7.444;2023-05-07T07:31:24;16.80;99.90
31661;DHT22;18267;52.234;7.444;2023-05-07T07:33:49;16.70;99.90
31661;DHT22;18267;52.234;7.444;2023-05-07T07:36:16;16.70;99.90
31661;DHT22;18267;52.234;7.444;2023-05-07T07:38:41;16.80;99.90
31661;DHT22;18267;52.234;7.444;2023-05-07T07:41:10;16.80;99.90
31661;DHT22;18267;52.234;7.444;2023-05-07T07:43:35;16.90;99.90
31661;DHT22;18267;52.234;7.444;2023-05-07T07:46:01;16.90;99.90
31661;DHT22;18267;52.234;7.444;2023-05-07T07:48:27;17.00;99.90
31661;DHT22;18267;52.234;7.444;2023-05-07T07:50:52;17.10;99.90
31661;DHT22;18267;52.234;7.444;2023-05-07T07:53:18;17.20;99.90
31661;DHT22;18267;52.234;7.444;2023-05-07T07:55:44;17.40;99.90
31661;DHT22;18267;52.234;7.444;2023-05-07T07:58:09;17.50;99.90
31661;DHT22;18267;52.234;7.444;2023-05-07T08:00:35;17.40;99.90
31661;DHT22;18267;52.234;7.444;2023-05-07T08:03:01;17.50;99.90
31661;DHT22;18267;52.234;7.444;2023-05-07T08:05:28;17.80;99.90
31661;DHT22;18267;52.234;7.444;2023-05-07T08:07:54;17.80;99.90
31661;DHT22;18267;52.234;7.444;2023-05-07T08:10:20;17.80;99.90
31661;DHT22;18267;52.234;7.444;2023-05-07T08:12:48;17.90;99.90
31661;DHT22;18267;52.234;7.444;2023-05-07T08:15:14;17.90;99.90
31661;DHT22;18267;52.234;7.444;2023-05-07T08:17:40;18.00;99.90
31661;DHT22;18267;52.234;7.444;2023-05-07T08:20:06;18.00;99.90
31661;DHT22;18267;52.234;7.444;2023-05-07T08:22:32;18.00;99.90
31661;DHT22;18267;52.234;7.444;2023-05-07T08:24:57;17.90;99.90
31661;DHT22;18267;52.234;7.444;2023-05-07T08:27:23;17.90;99.90
31661;DHT22;18267;52.234;7.444;2023-05-07T08:29:49;17.80;99.90
31661;DHT22;18267;52.234;7.444;2023-05-07T08:32:15;17.80;99.90
31661;DHT22;18267;52.234;7.444;2023-05-07T08:34:40;17.80;99.90
31661;DHT22;18267;52.234;7.444;2023-05-07T08:37:06;17.80;99.90
31661;DHT22;18267;52.234;7.444;2023-05-07T08:39:31;17.90;99.90
31661;DHT22;18267;52.234;7.444;2023-05-07T08:42:00;18.00;99.90
31661;DHT22;18267;52.234;7.444;2023-05-07T08:44:28;18.10;99.90
31661;DHT22;18267;52.234;7.444;2023-05-07T08:46:56;18.10;99.90
31661;DHT22;18267;52.234;7.444;2023-05-07T08:49:23;18.00;99.90
31661;DHT22;18267;52.234;7.444;2023-05-07T08:51:49;18.00;99.90
31661;DHT22;18267;52.234;7.444;2023-05-07T08:54:18;18.00;99.90
31661;DHT22;18267;52.234;7.444;2023-05-07T08:56:45;17.90;99.90
31661;DHT22;18267;52.234;7.444;2023-05-07T08:59:10;18.00;99.90
31661;DHT22;18267;52.234;7.444;2023-05-07T09:01:36;18.10;99.90
31661;DHT22;18267;52.234;7.444;2023-05-07T09:04:02;18.10;99.90
31661;DHT22;18267;52.234;7.444;2023-05-07T09:06:28;18.30;99.90
31661;DHT22;18267;52.234;7.444;2023-05-07T09:08:54;18.50;99.90
31661;DHT22;18267;52.234;7.444;2023-05-07T09:11:21;18.50;99.90
31661;DHT22;18267;52.234;7.444;2023-05-07T09:13:48;18.50;99.90
31661;DHT22;18267;52.234;7.444;2023-05-07T09:16:14;18.50;99.90
31661;DHT22;18267;52.234;7.444;2023-05-07T09:18:43;18.60;99.90
31661;DHT22;18267;52.234;7.444;2023-05-07T09:21:11;18.70;99.90
31661;DHT22;18267;52.234;7.444;2023-05-07T09:23:36;18.70;99.90
31661;DHT22;18267;52.234;7.444;2023-05-07T09:26:02;18.70;99.90
31661;DHT22;18267;52.234;7.444;2023-05-07T09:28:28;18.70;99.90
31661;DHT22;18267;52.234;7.444;2023-05-07T09:30:53;18.70;99.90
31661;DHT22;18267;52.234;7.444;2023-05-07T09:33:20;18.60;99.90
31661;DHT22;18267;52.234;7.444;2023-05-07T09:35:46;18.70;99.90
31661;DHT22;18267;52.234;7.444;2023-05-07T09:38:12;18.60;99.90
31661;DHT22;18267;52.234;7.444;2023-05-07T09:40:38;18.60;99.90
31661;DHT22;18267;52.234;7.444;2023-05-07T09:43:10;18.70;99.90
31661;DHT22;18267;52.234;7.444;2023-05-07T09:45:37;18.60;99.90
31661;DHT22;18267;52.234;7.444;2023-05-07T09:48:05;18.60;99.90
31661;DHT22;18267;52.234;7.444;2023-05-07T09:50:45;18.70;99.90
31661;DHT22;18267;52.234;7.444;2023-05-07T09:53:14;18.80;99.90
31661;DHT22;18267;52.234;7.444;2023-05-07T09:55:41;18.80;99.90
31661;DHT22;18267;52.234;7.444;2023-05-07T09:58:09;18.80;99.90
31661;DHT22;18267;52.234;7.444;2023-05-07T10:00:37;19.00;99.90
31661;DHT22;18267;52.234;7.444;2023-05-07T10:03:04;19.10;99.90
31661;DHT22;18267;52.234;7.444;2023-05-07T10:05:31;19.10;99.90
31661;DHT22;18267;52.234;7.444;2023-05-07T10:07:57;19.20;99.90
31661;DHT22;18267;52.234;7.444;2023-05-07T10:10:24;19.10;99.90
31661;DHT22;18267;52.234;7.444;2023-05-07T10:12:50;19.30;99.90
31661;DHT22;18267;52.234;7.444;2023-05-07T10:15:16;19.40;99.90
31661;DHT22;18267;52.234;7.444;2023-05-07T10:17:42;19.50;99.90
31661;DHT22;18267;52.234;7.444;2023-05-07T10:20:08;19.50;99.90
31661;DHT22;18267;52.234;7.444;2023-05-07T10:22:41;19.10;99.90
31661;DHT22;18267;52.234;7.444;2023-05-07T10:25:23;19.10;99.90
31661;DHT22;18267;52.234;7.444;2023-05-07T10:27:51;19.00;99.90
31661;DHT22;18267;52.234;7.444;2023-05-07T10:30:51;19.20;99.90
31661;DHT22;18267;52.234;7.444;2023-05-07T10:33:26;19.30;99.90
31661;DHT22;18267;52.234;7.444;2023-05-07T10:35:57;19.20;99.90
31661;DHT22;18267;52.234;7.444;2023-05-07T10:38:24;19.10;99.90
31661;DHT22;18267;52.234;7.444;2023-05-07T10:40:51;19.10;99.90
31661;DHT22;18267;52.234;7.444;2023-05-07T10:43:17;19.10;99.90
31661;DHT22;18267;52.234;7.444;2023-05-07T10:45:43;19.10;99.90
31661;DHT22;18267;52.234;7.444;2023-05-07T10:48:28;19.00;99.90
31661;DHT22;18267;52.234;7.444;2023-05-07T10:51:20;19.10;99.90
31661;DHT22;18267;52.234;7.444;2023-05-07T10:53:46;19.20;99.90
31661;DHT22;18267;52.234;7.444;2023-05-07T10:58:44;19.10;99.90
31661;DHT22;18267;52.234;7.444;2023-05-07T11:01:10;19.10;99.90
31661;DHT22;18267;52.234;7.444;2023-05-07T11:04:13;19.30;99.90
31661;DHT22;18267;52.234;7.444;2023-05-07T11:06:40;19.30;99.90
31661;DHT22;18267;52.234;7.444;2023-05-07T11:09:05;19.20;99.90
31661;DHT22;18267;52.234;7.444;2023-05-07T11:11:50;19.00;99.90
31661;DHT22;18267;52.234;7.444;2023-05-07T11:17:05;19.20;99.90
31661;DHT22;18267;52.234;7.444;2023-05-07T11:19:53;19.20;99.90
31661;DHT22;18267;52.234;7.444;2023-05-07T11:24:59;19.20;99.90
31661;DHT22;18267;52.234;7.444;2023-05-07T11:27:26;19.30;99.90
31661;DHT22;18267;52.234;7.444;2023-05-07T11:29:51;19.30;99.90
31661;DHT22;18267;52.234;7.444;2023-05-07T11:32:30;19.40;99.90
31661;DHT22;18267;52.234;7.444;2023-05-07T11:34:57;19.30;99.90
31661;DHT22;18267;52.234;7.444;2023-05-07T11:37:24;19.40;99.90
31661;DHT22;18267;52.234;7.444;2023-05-07T11:39:50;19.50;99.90
31661;DHT22;18267;52.234;7.444;2023-05-07T11:42:34;19.70;99.90
31661;DHT22;18267;52.234;7.444;2023-05-07T11:45:00;19.90;99.90
31661;DHT22;18267;52.234;7.444;2023-05-07T11:47:29;20.00;99.90
31661;DHT22;18267;52.234;7.444;2023-05-07T11:49:55;20.00;99.90
31661;DHT22;18267;52.234;7.444;2023-05-07T11:52:23;19.80;99.90
31661;DHT22;18267;52.234;7.444;2023-05-07T11:54:59;20.00;99.90
31661;DHT22;18267;52.234;7.444;2023-05-07T11:57:26;20.10;99.90
31661;DHT22;18267;52.234;7.444;2023-05-07T11:59:55;20.20;99.90
31661;DHT22;18267;52.234;7.444;2023-05-07T12:02:21;20.30;99.90
31661;DHT22;18267;52.234;7.444;2023-05-07T12:04:46;20.20;99.90
31661;DHT22;18267;52.234;7.444;2023-05-07T12:07:15;19.90;99.90
31661;DHT22;18267;52.234;7.444;2023-05-07T12:09:42;19.90;99.90
31661;DHT22;18267;52.234;7.444;2023-05-07T12:12:08;20.00;99.90
31661;DHT22;18267;52.234;7.444;2023-05-07T12:14:41;20.10;99.90
31661;DHT22;18267;52.234;7.444;2023-05-07T12:17:08;20.20;99.90
31661;DHT22;18267;52.234;7.444;2023-05-07T12:19:35;20.30;99.90
31661;DHT22;18267;52.234;7.444;2023-05-07T12:22:02;20.40;99.90
31661;DHT22;18267;52.234;7.444;2023-05-07T12:24:28;20.50;99.90
31661;DHT22;18267;52.234;7.444;2023-05-07T12:26:54;20.50;99.90
31661;DHT22;18267;52.234;7.444;2023-05-07T12:29:23;20.50;99.90
31661;DHT22;18267;52.234;7.444;2023-05-07T12:31:49;20.50;99.90
31661;DHT22;18267;52.234;7.444;2023-05-07T12:34:15;20.40;99.90
31661;DHT22;18267;52.234;7.444;2023-05-07T12:36:41;20.30;99.90
31661;DHT22;18267;52.234;7.444;2023-05-07T12:39:08;20.20;99.90
31661;DHT22;18267;52.234;7.444;2023-05-07T12:41:56;20.10;99.90
31661;DHT22;18267;52.234;7.444;2023-05-07T12:44:23;20.10;99.90
31661;DHT22;18267;52.234;7.444;2023-05-07T12:46:49;20.20;99.90
31661;DHT22;18267;52.234;7.444;2023-05-07T12:49:15;20.30;99.90
31661;DHT22;18267;52.234;7.444;2023-05-07T12:51:41;20.30;99.90
31661;DHT22;18267;52.234;7.444;2023-05-07T12:54:06;20.30;99.90
31661;DHT22;18267;52.234;7.444;2023-05-07T12:56:35;20.20;99.90
31661;DHT22;18267;52.234;7.444;2023-05-07T12:59:00;20.10;99.90
31661;DHT22;18267;52.234;7.444;2023-05-07T13:01:30;20.20;99.90
31661;DHT22;18267;52.234;7.444;2023-05-07T13:04:01;20.30;99.90
31661;DHT22;18267;52.234;7.444;2023-05-07T13:06:26;20.30;99.90
31661;DHT22;18267;52.234;7.444;2023-05-07T13:08:52;20.30;99.90
31661;DHT22;18267;52.234;7.444;2023-05-07T13:11:18;20.10;99.90
31661;DHT22;18267;52.234;7.444;2023-05-07T13:13:43;20.10;99.90
31661;DHT22;18267;52.234;7.444;2023-05-07T13:16:10;20.10;99.90
31661;DHT22;18267;52.234;7.444;2023-05-07T13:18:38;20.20;99.90
31661;DHT22;18267;52.234;7.444;2023-05-07T13:21:04;20.20;99.90
31661;DHT22;18267;52.234;7.444;2023-05-07T13:23:30;20.10;99.90
31661;DHT22;18267;52.234;7.444;2023-05-07T13:25:55;20.20;99.90
31661;DHT22;18267;52.234;7.444;2023-05-07T13:28:25;20.30;99.90
31661;DHT22;18267;52.234;7.444;2023-05-07T13:30:51;20.30;99.90
31661;DHT22;18267;52.234;7.444;2023-05-07T13:33:17;20.20;99.90
31661;DHT22;18267;52.234;7.444;2023-05-07T13:35:44;20.20;99.90
31661;DHT22;18267;52.234;7.444;2023-05-07T13:38:10;20.10;99.90
31661;DHT22;18267;52.234;7.444;2023-05-07T13:40:35;20.10;99.90
31661;DHT22;18267;52.234;7.444;2023-05-07T13:43:01;20.10;99.90
31661;DHT22;18267;52.234;7.444;2023-05-07T13:45:28;20.20;99.90
31661;DHT22;18267;52.234;7.444;2023-05-07T13:47:55;20.20;99.90
31661;DHT22;18267;52.234;7.444;2023-05-07T13:50:20;20.30;99.90
31661;DHT22;18267;52.234;7.444;2023-05-07T13:52:46;20.40;99.90
31661;DHT22;18267;52.234;7.444;2023-05-07T13:55:19;20.40;99.90
31661;DHT22;18267;52.234;7.444;2023-05-07T13:57:46;20.50;99.90
31661;DHT22;18267;52.234;7.444;2023-05-07T14:00:12;20.60;99.90
31661;DHT22;18267;52.234;7.444;2023-05-07T14:02:38;20.70;99.90
31661;DHT22;18267;52.234;7.444;2023-05-07T14:05:05;20.80;99.90
31661;DHT22;18267;52.234;7.444;2023-05-07T14:07:30;20.90;99.90
31661;DHT22;18267;52.234;7.444;2023-05-07T14:09:57;20.90;99.90
31661;DHT22;18267;52.234;7.444;2023-05-07T14:12:22;21.00;99.90
31661;DHT22;18267;52.234;7.444;2023-05-07T14:14:48;21.00;99.90
31661;DHT22;18267;52.234;7.444;2023-05-07T14:17:16;21.00;99.90
31661;DHT22;18267;52.234;7.444;2023-05-07T14:19:42;21.00;99.90
31661;DHT22;18267;52.234;7.444;2023-05-07T14:22:08;21.00;99.90
31661;DHT22;18267;52.234;7.444;2023-05-07T14:24:34;20.80;99.90
31661;DHT22;18267;52.234;7.444;2023-05-07T14:27:00;20.80;99.90
31661;DHT22;18267;52.234;7.444;2023-05-07T14:29:25;20.80;99.90
31661;DHT22;18267;52.234;7.444;2023-05-07T14:31:51;20.80;99.90
31661;DHT22;18267;52.234;7.444;2023-05-07T14:34:16;20.80;99.90
31661;DHT22;18267;52.234;7.444;2023-05-07T14:36:42;20.70;99.90
31661;DHT22;18267;52.234;7.444;2023-05-07T14:39:09;20.50;99.90
31661;DHT22;18267;52.234;7.444;2023-05-07T14:41:35;20.50;99.90
31661;DHT22;18267;52.234;7.444;2023-05-07T14:44:01;20.40;99.90
31661;DHT22;18267;52.234;7.444;2023-05-07T14:46:29;20.30;99.90
31661;DHT22;18267;52.234;7.444;2023-05-07T14:48:55;20.30;99.90
31661;DHT22;18267;52.234;7.444;2023-05-07T14:51:21;20.40;99.90
31661;DHT22;18267;52.234;7.444;2023-05-07T14:53:47;20.30;99.90
31661;DHT22;18267;52.234;7.444;2023-05-07T14:56:12;20.40;99.90
31661;DHT22;18267;52.234;7.444;2023-05-07T14:58:38;20.40;99.90
31661;DHT22;18267;52.234;7.444;2023-05-07T15:01:03;20.50;99.90
31661;DHT22;18267;52.234;7.444;2023-05-07T15:03:29;20.50;99.90
31661;DHT22;18267;52.234;7.444;2023-05-07T15:05:55;20.50;99.90
31661;DHT22;18267;52.234;7.444;2023-05-07T15:08:21;20.50;99.90
31661;DHT22;18267;52.234;7.444;2023-05-07T15:10:46;20.50;99.90
31661;DHT22;18267;52.234;7.444;2023-05-07T15:13:12;20.50;99.90
31661;DHT22;18267;52.234;7.444;2023-05-07T15:15:42;20.50;99.90
31661;DHT22;18267;52.234;7.444;2023-05-07T15:18:08;20.50;99.90
31661;DHT22;18267;52.234;7.444;2023-05-07T15:20:33;20.50;99.90
31661;DHT22;18267;52.234;7.444;2023-05-07T15:22:59;20.40;99.90
31661;DHT22;18267;52.234;7.444;2023-05-07T15:25:25;20.40;99.90
31661;DHT22;18267;52.234;7.444;2023-05-07T15:27:51;20.50;99.90
31661;DHT22;18267;52.234;7.444;2023-05-07T15:30:16;20.50;99.90
31661;DHT22;18267;52.234;7.444;2023-05-07T15:32:42;20.60;99.90
31661;DHT22;18267;52.234;7.444;2023-05-07T15:35:09;20.60;99.90